createdAt,value
2023-06-17T00:00:46.168Z,16.50
2023-06-17T00:01:47.162Z,16.49
2023-06-17T00:02:47.163Z,16.49
2023-06-17T00:03:47.360Z,16.49
2023-06-17T00:04:47.298Z,16.48
2023-06-17T00:05:48.169Z,16.46
2023-06-17T00:06:47.882Z,16.45
2023-06-17T00:07:48.240Z,16.43
2023-06-17T00:08:48.436Z,16.43
2023-06-17T00:09:49.306Z,16.42
2023-06-17T00:10:49.077Z,16.42
2023-06-17T00:11:49.251Z,16.43
2023-06-17T00:12:49.462Z,16.43
2023-06-17T00:13:49.680Z,16.42
2023-06-17T00:14:51.310Z,16.42
2023-06-17T00:15:50.766Z,16.42
2023-06-17T00:16:50.728Z,16.42
2023-06-17T00:17:50.891Z,16.39
2023-06-17T00:18:51.380Z,16.39
2023-06-17T00:19:51.398Z,16.38
2023-06-17T00:20:51.658Z,16.35
2023-06-17T00:21:52.013Z,16.35
2023-06-17T00:22:52.635Z,16.34
2023-06-17T00:23:52.916Z,16.33
2023-06-17T00:24:53.126Z,16.33
2023-06-17T00:25:53.306Z,16.33
2023-06-17T00:26:53.684Z,16.34
2023-06-17T00:27:53.721Z,16.33
2023-06-17T00:28:53.994Z,16.33
2023-06-17T00:29:54.214Z,16.33
2023-06-17T00:30:54.560Z,16.33
2023-06-17T00:31:54.853Z,16.30
2023-06-17T00:32:55.410Z,16.31
2023-06-17T00:33:55.451Z,16.28
2023-06-17T00:34:56.157Z,16.25
2023-06-17T00:35:56.267Z,16.27
2023-06-17T00:36:56.578Z,16.25
2023-06-17T00:37:56.737Z,16.23
2023-06-17T00:38:56.982Z,16.20
2023-06-17T00:39:57.355Z,16.20
2023-06-17T00:40:57.639Z,16.20
2023-06-17T00:41:58.570Z,16.15
2023-06-17T00:42:58.623Z,16.12
2023-06-17T00:43:59.135Z,16.12
2023-06-17T00:44:58.835Z,16.12
2023-06-17T00:45:59.127Z,16.12
2023-06-17T00:46:59.205Z,16.09
2023-06-17T00:47:59.538Z,16.09
2023-06-17T00:48:59.799Z,16.08
2023-06-17T00:50:00.170Z,16.08
2023-06-17T00:51:00.326Z,16.07
2023-06-17T00:52:15.474Z,16.07
2023-06-17T00:53:02.194Z,16.07
2023-06-17T00:54:01.309Z,16.05
2023-06-17T00:55:01.650Z,16.05
2023-06-17T00:56:01.848Z,16.02
2023-06-17T00:57:02.363Z,16.04
2023-06-17T00:58:02.723Z,16.04
2023-06-17T00:59:03.092Z,16.02
2023-06-17T01:00:03.290Z,16.01
2023-06-17T01:01:03.861Z,16.00
2023-06-17T01:02:04.620Z,16.00
2023-06-17T01:03:04.994Z,15.97
2023-06-17T01:04:04.821Z,15.94
2023-06-17T01:05:04.892Z,15.94
2023-06-17T01:06:05.504Z,15.96
2023-06-17T01:07:05.568Z,15.96
2023-06-17T01:08:05.697Z,15.94
2023-06-17T01:09:06.096Z,15.94
2023-06-17T01:10:06.197Z,15.94
2023-06-17T01:11:06.532Z,15.94
2023-06-17T01:12:06.888Z,15.94
2023-06-17T01:13:07.155Z,15.94
2023-06-17T01:14:07.501Z,15.93
2023-06-17T01:15:07.811Z,15.93
2023-06-17T01:16:08.090Z,15.93
2023-06-17T01:17:08.488Z,15.94
2023-06-17T01:18:09.012Z,15.94
2023-06-17T01:19:09.412Z,15.97
2023-06-17T01:20:09.156Z,16.00
2023-06-17T01:21:09.642Z,16.01
2023-06-17T01:22:10.026Z,16.01
2023-06-17T01:23:10.465Z,16.02
2023-06-17T01:24:10.885Z,16.02
2023-06-17T01:25:10.912Z,16.04
2023-06-17T01:26:11.136Z,16.05
2023-06-17T01:27:11.640Z,16.05
2023-06-17T01:28:11.672Z,16.05
2023-06-17T01:29:11.977Z,16.05
2023-06-17T01:30:12.208Z,16.07
2023-06-17T01:31:13.267Z,16.08
2023-06-17T01:32:13.674Z,16.08
2023-06-17T01:33:13.362Z,16.09
2023-06-17T01:34:13.332Z,16.08
2023-06-17T01:35:14.921Z,16.07
2023-06-17T01:36:13.978Z,16.07
2023-06-17T01:37:14.524Z,16.07
2023-06-17T01:38:14.924Z,16.05
2023-06-17T01:39:15.728Z,16.04
2023-06-17T01:40:16.632Z,16.05
2023-06-17T01:41:16.307Z,16.07
2023-06-17T01:42:15.783Z,16.04
2023-06-17T01:43:16.331Z,16.04
2023-06-17T01:44:16.271Z,16.05
2023-06-17T01:45:16.868Z,16.05
2023-06-17T01:46:17.852Z,16.04
2023-06-17T01:47:17.291Z,16.04
2023-06-17T01:48:17.399Z,16.04
2023-06-17T01:49:17.857Z,16.02
2023-06-17T01:50:18.477Z,16.01
2023-06-17T01:51:18.393Z,16.01
2023-06-17T01:52:19.572Z,16.01
2023-06-17T01:53:19.094Z,16.01
2023-06-17T01:54:19.685Z,16.01
2023-06-17T01:55:20.234Z,16.01
2023-06-17T01:56:20.452Z,16.00
2023-06-17T01:57:20.597Z,16.00
2023-06-17T01:58:20.164Z,15.97
2023-06-17T01:59:20.290Z,16.00
2023-06-17T02:00:20.895Z,15.97
2023-06-17T02:01:21.213Z,16.00
2023-06-17T02:02:21.336Z,16.00
2023-06-17T02:03:22.146Z,16.00
2023-06-17T02:04:22.680Z,16.01
2023-06-17T02:05:22.304Z,16.00
2023-06-17T02:06:23.564Z,15.97
2023-06-17T02:07:22.911Z,16.00
2023-06-17T02:08:23.334Z,15.97
2023-06-17T02:09:23.769Z,15.97
2023-06-17T02:10:24.560Z,15.96
2023-06-17T02:11:23.825Z,15.94
2023-06-17T02:12:24.228Z,15.94
2023-06-17T02:13:24.510Z,15.93
2023-06-17T02:14:24.585Z,15.93
2023-06-17T02:15:25.300Z,15.94
2023-06-17T02:16:25.380Z,15.92
2023-06-17T02:17:25.679Z,15.92
2023-06-17T02:18:26.571Z,15.93
2023-06-17T02:19:26.930Z,15.92
2023-06-17T02:20:26.824Z,15.92
2023-06-17T02:21:27.178Z,15.90
2023-06-17T02:22:27.523Z,15.92
2023-06-17T02:23:27.928Z,15.92
2023-06-17T02:24:27.889Z,15.90
2023-06-17T02:25:29.164Z,15.92
2023-06-17T02:26:28.383Z,15.89
2023-06-17T02:27:28.543Z,15.87
2023-06-17T02:28:28.887Z,15.90
2023-06-17T02:29:29.189Z,15.89
2023-06-17T02:30:29.525Z,15.89
2023-06-17T02:31:29.828Z,15.89
2023-06-17T02:32:30.164Z,15.89
2023-06-17T02:33:30.441Z,15.89
2023-06-17T02:34:30.689Z,15.89
2023-06-17T02:35:30.896Z,15.89
2023-06-17T02:36:31.217Z,15.87
2023-06-17T02:37:31.559Z,15.89
2023-06-17T02:38:31.863Z,15.90
2023-06-17T02:39:32.221Z,15.89
2023-06-17T02:40:32.516Z,15.90
2023-06-17T02:41:32.838Z,15.89
2023-06-17T02:42:33.174Z,15.90
2023-06-17T02:43:33.463Z,15.92
2023-06-17T02:44:33.782Z,15.92
2023-06-17T02:45:34.137Z,15.90
2023-06-17T02:46:34.551Z,15.92
2023-06-17T02:47:34.845Z,15.93
2023-06-17T02:48:34.988Z,15.93
2023-06-17T02:49:35.355Z,15.92
2023-06-17T02:50:35.674Z,15.92
2023-06-17T02:51:35.922Z,15.93
2023-06-17T02:52:36.255Z,15.93
2023-06-17T02:53:36.574Z,15.94
2023-06-17T02:54:36.841Z,15.93
2023-06-17T02:55:37.143Z,15.94
2023-06-17T02:56:37.329Z,15.94
2023-06-17T02:57:37.678Z,15.94
2023-06-17T02:58:38.018Z,15.94
2023-06-17T02:59:38.330Z,15.96
2023-06-17T03:00:38.754Z,15.97
2023-06-17T03:01:38.913Z,15.94
2023-06-17T03:02:39.348Z,15.94
2023-06-17T03:03:39.428Z,15.96
2023-06-17T03:04:39.655Z,15.96
2023-06-17T03:05:39.932Z,15.92
2023-06-17T03:06:40.207Z,15.92
2023-06-17T03:07:40.451Z,15.90
2023-06-17T03:08:40.674Z,15.90
2023-06-17T03:09:40.885Z,15.90
2023-06-17T03:10:41.228Z,15.89
2023-06-17T03:11:41.569Z,15.90
2023-06-17T03:12:41.793Z,15.89
2023-06-17T03:13:42.188Z,15.89
2023-06-17T03:14:42.404Z,15.90
2023-06-17T03:15:42.748Z,15.92
2023-06-17T03:16:43.075Z,15.90
2023-06-17T03:17:43.414Z,15.90
2023-06-17T03:18:43.645Z,15.92
2023-06-17T03:19:43.990Z,15.93
2023-06-17T03:20:44.206Z,15.93
2023-06-17T03:21:44.535Z,15.94
2023-06-17T03:22:44.782Z,15.94
2023-06-17T03:23:45.066Z,15.94
2023-06-17T03:24:45.292Z,15.94
2023-06-17T03:25:45.510Z,15.94
2023-06-17T03:26:45.858Z,15.93
2023-06-17T03:27:46.190Z,15.93
2023-06-17T03:28:46.460Z,15.92
2023-06-17T03:29:46.751Z,15.92
2023-06-17T03:30:47.167Z,15.92
2023-06-17T03:31:47.365Z,15.90
2023-06-17T03:32:47.709Z,15.90
2023-06-17T03:33:48.215Z,15.90
2023-06-17T03:34:48.401Z,15.90
2023-06-17T03:35:49.062Z,15.93
2023-06-17T03:36:48.983Z,15.93
2023-06-17T03:37:49.273Z,15.93
2023-06-17T03:38:49.730Z,15.94
2023-06-17T03:39:49.909Z,15.97
2023-06-17T03:41:48.714Z,16.00
2023-06-17T03:42:49.072Z,16.00
2023-06-17T03:43:49.357Z,16.02
2023-06-17T03:44:49.621Z,16.02
2023-06-17T03:45:49.945Z,16.07
2023-06-17T03:46:50.187Z,16.05
2023-06-17T03:47:50.567Z,16.08
2023-06-17T03:48:50.767Z,16.08
2023-06-17T03:49:50.999Z,16.09
2023-06-17T03:50:51.325Z,16.11
2023-06-17T03:51:51.745Z,16.11
2023-06-17T03:52:52.129Z,16.11
2023-06-17T03:53:52.327Z,16.09
2023-06-17T03:54:52.585Z,16.09
2023-06-17T03:55:52.797Z,16.09
2023-06-17T03:56:53.081Z,16.11
2023-06-17T03:57:53.432Z,16.11
2023-06-17T03:58:53.677Z,16.09
2023-06-17T03:59:53.937Z,16.08
2023-06-17T04:00:54.225Z,16.08
2023-06-17T04:01:54.478Z,16.08
2023-06-17T04:02:54.858Z,16.08
2023-06-17T04:03:55.071Z,16.08
2023-06-17T04:04:55.213Z,16.08
2023-06-17T04:05:55.586Z,16.09
2023-06-17T04:06:55.757Z,16.12
2023-06-17T04:07:55.998Z,16.12
2023-06-17T04:08:56.247Z,16.11
2023-06-17T04:10:06.440Z,16.12
2023-06-17T04:10:57.761Z,16.11
2023-06-17T04:11:57.012Z,16.09
2023-06-17T04:12:57.288Z,16.07
2023-06-17T04:13:57.540Z,16.04
2023-06-17T04:14:57.796Z,16.04
2023-06-17T04:15:58.079Z,16.04
2023-06-17T04:16:58.465Z,16.05
2023-06-17T04:17:58.775Z,16.07
2023-06-17T04:18:58.924Z,16.05
2023-06-17T04:19:59.201Z,16.07
2023-06-17T04:20:59.494Z,16.07
2023-06-17T04:21:59.755Z,16.07
2023-06-17T04:23:00.174Z,16.05
2023-06-17T04:24:00.371Z,16.05
2023-06-17T04:25:00.675Z,16.07
2023-06-17T04:26:01.165Z,16.05
2023-06-17T04:27:01.331Z,16.04
2023-06-17T04:28:01.635Z,16.07
2023-06-17T04:29:01.817Z,16.08
2023-06-17T04:30:02.221Z,16.07
2023-06-17T04:31:02.697Z,16.07
2023-06-17T04:32:02.775Z,16.09
2023-06-17T04:33:02.936Z,16.09
2023-06-17T04:34:03.164Z,16.11
2023-06-17T04:35:03.535Z,16.11
2023-06-17T04:36:03.807Z,16.09
2023-06-17T04:37:04.058Z,16.08
2023-06-17T04:38:04.369Z,16.08
2023-06-17T04:39:04.688Z,16.05
2023-06-17T04:40:04.904Z,16.07
2023-06-17T04:41:05.222Z,16.05
2023-06-17T04:42:05.539Z,16.07
2023-06-17T04:43:05.853Z,16.07
2023-06-17T04:44:06.123Z,16.08
2023-06-17T04:45:06.477Z,16.08
2023-06-17T04:46:06.718Z,16.07
2023-06-17T04:47:07.083Z,16.08
2023-06-17T04:48:07.735Z,16.07
2023-06-17T04:49:07.629Z,16.08
2023-06-17T04:50:07.847Z,16.09
2023-06-17T04:51:08.119Z,16.09
2023-06-17T04:52:08.404Z,16.11
2023-06-17T04:53:08.690Z,16.12
2023-06-17T04:54:08.994Z,16.14
2023-06-17T04:55:09.293Z,16.15
2023-06-17T04:56:09.550Z,16.17
2023-06-17T04:57:09.896Z,16.15
2023-06-17T04:58:10.143Z,16.17
2023-06-17T04:59:10.418Z,16.20
2023-06-17T05:00:10.726Z,16.20
2023-06-17T05:01:11.091Z,16.17
2023-06-17T05:02:11.264Z,16.17
2023-06-17T05:03:11.656Z,16.17
2023-06-17T05:04:11.835Z,16.21
2023-06-17T05:05:13.397Z,16.21
2023-06-17T05:06:12.493Z,16.23
2023-06-17T05:07:12.758Z,16.23
2023-06-17T05:08:13.073Z,16.21
2023-06-17T05:09:13.342Z,16.17
2023-06-17T05:10:13.648Z,16.14
2023-06-17T05:11:13.918Z,16.14
2023-06-17T05:12:14.295Z,16.15
2023-06-17T05:13:14.927Z,16.20
2023-06-17T05:14:16.813Z,16.21
2023-06-17T05:15:15.177Z,16.21
2023-06-17T05:16:15.496Z,16.23
2023-06-17T05:17:15.833Z,16.25
2023-06-17T05:18:16.018Z,16.27
2023-06-17T05:19:16.293Z,16.27
2023-06-17T05:20:16.565Z,16.28
2023-06-17T05:21:16.896Z,16.30
2023-06-17T05:22:17.284Z,16.30
2023-06-17T05:23:17.414Z,16.30
2023-06-17T05:24:17.744Z,16.31
2023-06-17T05:25:18.010Z,16.31
2023-06-17T05:26:18.289Z,16.33
2023-06-17T05:27:18.565Z,16.33
2023-06-17T05:28:18.872Z,16.33
2023-06-17T05:29:19.171Z,16.34
2023-06-17T05:30:19.760Z,16.35
2023-06-17T05:31:19.863Z,16.38
2023-06-17T05:32:20.099Z,16.38
2023-06-17T05:33:20.443Z,16.39
2023-06-17T05:34:20.687Z,16.38
2023-06-17T05:35:20.985Z,16.39
2023-06-17T05:36:22.511Z,16.39
2023-06-17T05:37:21.616Z,16.38
2023-06-17T05:38:21.878Z,16.38
2023-06-17T05:39:22.211Z,16.39
2023-06-17T05:40:22.762Z,16.39
2023-06-17T05:41:22.861Z,16.42
2023-06-17T05:42:23.139Z,16.42
2023-06-17T05:43:23.441Z,16.45
2023-06-17T05:44:23.746Z,16.42
2023-06-17T05:45:24.103Z,16.41
2023-06-17T05:46:24.478Z,16.43
2023-06-17T05:47:24.685Z,16.48
2023-06-17T05:48:26.467Z,16.50
2023-06-17T05:49:25.299Z,16.53
2023-06-17T05:50:25.617Z,16.60
2023-06-17T05:51:25.896Z,16.61
2023-06-17T05:52:26.239Z,16.68
2023-06-17T05:53:26.465Z,16.75
2023-06-17T05:54:26.846Z,16.81
2023-06-17T05:55:27.023Z,16.86
2023-06-17T05:56:27.320Z,16.91
2023-06-17T05:57:27.615Z,16.94
2023-06-17T05:58:27.951Z,16.96
2023-06-17T05:59:28.290Z,16.97
2023-06-17T06:00:28.534Z,16.98
2023-06-17T06:01:28.873Z,17.01
2023-06-17T06:02:29.209Z,17.04
2023-06-17T06:03:29.583Z,17.07
2023-06-17T06:04:29.871Z,17.12
2023-06-17T06:05:30.002Z,17.16
2023-06-17T06:06:30.809Z,17.19
2023-06-17T06:07:30.577Z,17.25
2023-06-17T06:08:30.889Z,17.26
2023-06-17T06:09:31.110Z,17.31
2023-06-17T06:10:31.398Z,17.31
2023-06-17T06:11:31.699Z,17.36
2023-06-17T06:12:32.019Z,17.38
2023-06-17T06:13:32.373Z,17.37
2023-06-17T06:14:32.734Z,17.40
2023-06-17T06:15:32.915Z,17.41
2023-06-17T06:16:33.261Z,17.44
2023-06-17T06:17:33.710Z,17.48
2023-06-17T06:18:33.791Z,17.48
2023-06-17T06:19:34.048Z,17.43
2023-06-17T06:20:34.358Z,17.40
2023-06-17T06:21:34.667Z,17.36
2023-06-17T06:22:34.979Z,17.30
2023-06-17T06:23:35.269Z,17.26
2023-06-17T06:24:35.582Z,17.25
2023-06-17T06:25:35.817Z,17.25
2023-06-17T06:26:36.103Z,17.23
2023-06-17T06:27:36.482Z,17.25
2023-06-17T06:28:36.783Z,17.23
2023-06-17T06:29:36.914Z,17.25
2023-06-17T06:30:37.202Z,17.25
2023-06-17T06:31:37.459Z,17.23
2023-06-17T06:32:37.741Z,17.23
2023-06-17T06:33:38.031Z,17.22
2023-06-17T06:34:38.302Z,17.22
2023-06-17T06:35:38.677Z,17.23
2023-06-17T06:36:38.930Z,17.26
2023-06-17T06:37:39.250Z,17.28
2023-06-17T06:38:39.438Z,17.30
2023-06-17T06:39:39.732Z,17.30
2023-06-17T06:40:40.019Z,17.33
2023-06-17T06:41:40.480Z,17.37
2023-06-17T06:42:40.607Z,17.43
2023-06-17T06:43:40.954Z,17.48
2023-06-17T06:44:41.083Z,17.49
2023-06-17T06:45:41.382Z,17.55
2023-06-17T06:46:41.677Z,17.56
2023-06-17T06:47:41.941Z,17.58
2023-06-17T06:48:42.207Z,17.59
2023-06-17T06:49:42.571Z,17.58
2023-06-17T06:50:42.695Z,17.55
2023-06-17T06:51:42.981Z,17.54
2023-06-17T06:52:43.274Z,17.51
2023-06-17T06:53:43.505Z,17.49
2023-06-17T06:54:43.769Z,17.44
2023-06-17T06:55:44.083Z,17.43
2023-06-17T06:56:44.456Z,17.41
2023-06-17T06:57:44.556Z,17.38
2023-06-17T06:58:44.835Z,17.38
2023-06-17T06:59:45.132Z,17.41
2023-06-17T07:00:45.477Z,17.41
2023-06-17T07:01:45.712Z,17.44
2023-06-17T07:02:45.955Z,17.48
2023-06-17T07:03:46.267Z,17.51
2023-06-17T07:04:46.553Z,17.54
2023-06-17T07:05:46.827Z,17.55
2023-06-17T07:06:47.098Z,17.58
2023-06-17T07:07:47.390Z,17.59
2023-06-17T07:08:47.680Z,17.62
2023-06-17T07:09:47.932Z,17.64
2023-06-17T07:10:48.230Z,17.66
2023-06-17T07:11:48.460Z,17.63
2023-06-17T07:12:48.875Z,17.59
2023-06-17T07:13:49.052Z,17.56
2023-06-17T07:14:49.348Z,17.56
2023-06-17T07:15:49.706Z,17.56
2023-06-17T07:16:50.043Z,17.62
2023-06-17T07:17:50.260Z,17.64
2023-06-17T07:18:50.511Z,17.63
2023-06-17T07:19:50.707Z,17.70
2023-06-17T07:20:51.061Z,17.81
2023-06-17T07:21:51.322Z,17.90
2023-06-17T07:22:51.591Z,18.00
2023-06-17T07:23:51.929Z,18.14
2023-06-17T07:24:52.289Z,18.21
2023-06-17T07:25:54.319Z,18.32
2023-06-17T07:26:52.728Z,18.45
2023-06-17T07:27:53.104Z,18.63
2023-06-17T07:28:53.310Z,18.80
2023-06-17T07:29:53.567Z,18.81
2023-06-17T07:30:53.842Z,18.78
2023-06-17T07:31:54.251Z,18.81
2023-06-17T07:32:54.402Z,18.87
2023-06-17T07:33:59.517Z,19.02
2023-06-17T07:34:58.144Z,19.14
2023-06-17T07:35:55.293Z,19.23
2023-06-17T07:36:55.541Z,19.37
2023-06-17T07:37:55.808Z,19.55
2023-06-17T07:38:56.142Z,19.73
2023-06-17T07:39:56.274Z,19.87
2023-06-17T07:40:56.590Z,19.92
2023-06-17T07:41:56.851Z,19.87
2023-06-17T07:42:57.173Z,19.78
2023-06-17T07:43:57.496Z,19.65
2023-06-17T07:44:57.756Z,19.51
2023-06-17T07:45:58.723Z,19.50
2023-06-17T07:46:58.373Z,19.43
2023-06-17T07:47:58.657Z,19.33
2023-06-17T07:48:58.877Z,19.33
2023-06-17T07:49:59.114Z,19.33
2023-06-17T07:50:59.412Z,19.32
2023-06-17T07:51:59.650Z,19.28
2023-06-17T07:52:59.889Z,19.26
2023-06-17T07:54:00.158Z,19.28
2023-06-17T07:55:00.409Z,19.26
2023-06-17T07:56:00.694Z,19.28
2023-06-17T07:57:00.922Z,19.31
2023-06-17T07:58:01.208Z,19.31
2023-06-17T07:59:01.482Z,19.32
2023-06-17T08:00:01.824Z,19.37
2023-06-17T08:01:02.049Z,19.37
2023-06-17T08:02:02.434Z,19.39
2023-06-17T08:03:02.578Z,19.31
2023-06-17T08:04:02.989Z,19.31
2023-06-17T08:05:03.035Z,19.28
2023-06-17T08:06:03.271Z,19.28
2023-06-17T08:07:03.550Z,19.26
2023-06-17T08:08:03.850Z,19.25
2023-06-17T08:09:04.049Z,19.25
2023-06-17T08:10:06.040Z,19.26
2023-06-17T08:11:04.576Z,19.28
2023-06-17T08:12:04.802Z,19.29
2023-06-17T08:13:05.037Z,19.32
2023-06-17T08:14:05.265Z,19.33
2023-06-17T08:15:05.524Z,19.33
2023-06-17T08:16:05.898Z,19.37
2023-06-17T08:17:06.015Z,19.41
2023-06-17T08:18:06.298Z,19.47
2023-06-17T08:19:06.485Z,19.50
2023-06-17T08:20:06.894Z,19.54
2023-06-17T08:21:07.101Z,19.58
2023-06-17T08:22:07.318Z,19.65
2023-06-17T08:23:07.701Z,19.73
2023-06-17T08:24:07.951Z,19.78
2023-06-17T08:25:08.287Z,19.78
2023-06-17T08:26:08.506Z,19.81
2023-06-17T08:27:08.753Z,19.91
2023-06-17T08:28:08.985Z,19.94
2023-06-17T08:29:09.236Z,19.99
2023-06-17T08:30:09.502Z,20.11
2023-06-17T08:31:09.761Z,20.17
2023-06-17T08:32:10.001Z,20.24
2023-06-17T08:33:10.305Z,20.26
2023-06-17T08:34:10.561Z,20.24
2023-06-17T08:35:10.804Z,20.14
2023-06-17T08:36:11.048Z,20.08
2023-06-17T08:37:11.306Z,19.99
2023-06-17T08:38:11.515Z,19.92
2023-06-17T08:39:11.814Z,19.87
2023-06-17T08:40:12.093Z,19.86
2023-06-17T08:41:12.446Z,19.92
2023-06-17T08:42:12.548Z,19.96
2023-06-17T08:43:12.790Z,20.05
2023-06-17T08:44:13.111Z,20.16
2023-06-17T08:45:13.373Z,20.26
2023-06-17T08:46:13.585Z,20.32
2023-06-17T08:47:13.825Z,20.47
2023-06-17T08:48:14.090Z,20.52
2023-06-17T08:49:14.461Z,20.55
2023-06-17T08:50:14.636Z,20.66
2023-06-17T08:51:14.933Z,20.79
2023-06-17T08:52:15.212Z,20.91
2023-06-17T08:53:15.550Z,21.04
2023-06-17T08:54:15.805Z,21.12
2023-06-17T08:55:16.063Z,21.03
2023-06-17T08:56:16.309Z,20.77
2023-06-17T08:57:16.549Z,20.61
2023-06-17T08:58:16.853Z,20.47
2023-06-17T08:59:17.102Z,20.38
2023-06-17T09:00:17.506Z,20.35
2023-06-17T09:01:17.642Z,20.33
2023-06-17T09:02:17.983Z,20.31
2023-06-17T09:03:18.202Z,20.24
2023-06-17T09:04:18.500Z,20.18
2023-06-17T09:05:18.918Z,20.16
2023-06-17T09:06:19.073Z,20.14
2023-06-17T09:07:19.338Z,20.14
2023-06-17T09:08:19.595Z,20.13
2023-06-17T09:09:19.848Z,20.10
2023-06-17T09:10:20.423Z,20.13
2023-06-17T09:11:20.407Z,20.20
2023-06-17T09:12:20.726Z,20.32
2023-06-17T09:13:20.962Z,20.39
2023-06-17T09:14:21.226Z,20.43
2023-06-17T09:15:21.502Z,20.50
2023-06-17T09:16:21.815Z,20.52
2023-06-17T09:17:24.215Z,20.55
2023-06-17T09:18:22.378Z,20.54
2023-06-17T09:19:22.639Z,20.48
2023-06-17T09:20:23.212Z,20.48
2023-06-17T09:21:23.243Z,20.48
2023-06-17T09:22:23.540Z,20.55
2023-06-17T09:23:23.804Z,20.57
2023-06-17T09:24:24.142Z,20.59
2023-06-17T09:25:24.354Z,20.64
2023-06-17T09:26:24.615Z,20.62
2023-06-17T09:27:24.882Z,20.67
2023-06-17T09:28:25.218Z,20.70
2023-06-17T09:29:25.470Z,20.76
2023-06-17T09:30:25.821Z,20.82
2023-06-17T09:31:26.039Z,20.91
2023-06-17T09:32:26.344Z,20.97
2023-06-17T09:33:26.554Z,21.01
2023-06-17T09:34:26.836Z,21.07
2023-06-17T09:35:27.098Z,21.12
2023-06-17T09:36:27.359Z,21.16
2023-06-17T09:37:27.649Z,21.16
2023-06-17T09:38:27.911Z,21.19
2023-06-17T09:39:28.176Z,21.17
2023-06-17T09:40:28.445Z,21.16
2023-06-17T09:41:36.427Z,21.21
2023-06-17T09:42:29.091Z,21.24
2023-06-17T09:43:29.792Z,21.25
2023-06-17T09:44:29.553Z,21.31
2023-06-17T09:45:29.908Z,21.38
2023-06-17T09:46:30.204Z,21.43
2023-06-17T09:47:30.577Z,21.42
2023-06-17T09:48:30.771Z,21.38
2023-06-17T09:49:31.106Z,21.38
2023-06-17T09:50:31.388Z,21.42
2023-06-17T09:51:31.660Z,21.42
2023-06-17T09:52:31.895Z,21.34
2023-06-17T09:53:32.148Z,21.22
2023-06-17T09:54:32.456Z,21.13
2023-06-17T09:55:32.704Z,21.06
2023-06-17T09:56:33.123Z,20.99
2023-06-17T09:57:33.242Z,20.91
2023-06-17T09:58:33.474Z,20.77
2023-06-17T09:59:33.692Z,20.62
2023-06-17T10:00:33.956Z,20.54
2023-06-17T10:01:34.164Z,20.43
2023-06-17T10:02:34.428Z,20.38
2023-06-17T10:03:34.723Z,20.24
2023-06-17T10:04:38.125Z,20.18
2023-06-17T10:05:35.325Z,20.16
2023-06-17T10:06:35.535Z,20.14
2023-06-17T10:07:35.889Z,20.14
2023-06-17T10:08:36.192Z,20.17
2023-06-17T10:09:36.417Z,20.21
2023-06-17T10:10:36.772Z,20.24
2023-06-17T10:11:37.009Z,20.31
2023-06-17T10:12:37.256Z,20.32
2023-06-17T10:13:37.534Z,20.35
2023-06-17T10:14:37.761Z,20.36
2023-06-17T10:15:37.982Z,20.41
2023-06-17T10:16:38.336Z,20.39
2023-06-17T10:17:38.610Z,20.41
2023-06-17T10:18:38.840Z,20.41
2023-06-17T10:19:39.109Z,20.43
2023-06-17T10:20:39.946Z,20.47
2023-06-17T10:21:39.614Z,20.48
2023-06-17T10:22:39.850Z,20.51
2023-06-17T10:23:40.099Z,20.47
2023-06-17T10:24:40.449Z,20.42
2023-06-17T10:25:40.587Z,20.41
2023-06-17T10:26:40.839Z,20.39
2023-06-17T10:27:41.107Z,20.38
2023-06-17T10:28:41.307Z,20.39
2023-06-17T10:29:41.525Z,20.42
2023-06-17T10:30:41.821Z,20.43
2023-06-17T10:31:42.085Z,20.50
2023-06-17T10:32:42.315Z,20.54
2023-06-17T10:33:42.536Z,20.58
2023-06-17T10:34:42.797Z,20.57
2023-06-17T10:35:43.072Z,20.61
2023-06-17T10:36:43.376Z,20.69
2023-06-17T10:37:43.635Z,20.74
2023-06-17T10:38:44.104Z,20.82
2023-06-17T10:39:44.148Z,20.89
2023-06-17T10:40:48.970Z,20.95
2023-06-17T10:41:44.655Z,21.03
2023-06-17T10:42:44.936Z,21.09
2023-06-17T10:43:45.177Z,21.17
2023-06-17T10:44:45.457Z,21.24
2023-06-17T10:45:45.728Z,21.29
2023-06-17T10:46:45.931Z,21.34
2023-06-17T10:47:46.187Z,21.38
2023-06-17T10:48:46.393Z,21.44
2023-06-17T10:49:46.654Z,21.50
2023-06-17T10:50:48.033Z,21.52
2023-06-17T10:52:48.506Z,21.59
2023-06-17T10:53:47.789Z,21.61
2023-06-17T10:54:48.024Z,21.54
2023-06-17T10:55:48.253Z,21.43
2023-06-17T10:56:48.523Z,21.40
2023-06-17T10:57:48.764Z,21.34
2023-06-17T10:58:49.003Z,21.29
2023-06-17T10:59:49.226Z,21.28
2023-06-17T11:00:49.535Z,21.21
2023-06-17T11:01:50.011Z,21.13
2023-06-17T11:02:50.083Z,21.01
2023-06-17T11:03:50.363Z,20.94
2023-06-17T11:04:50.573Z,20.85
2023-06-17T11:05:50.790Z,20.67
2023-06-17T11:06:51.147Z,20.55
2023-06-17T11:07:51.380Z,20.47
2023-06-17T11:08:51.620Z,20.38
2023-06-17T11:09:52.612Z,20.33
2023-06-17T11:10:52.120Z,20.31
2023-06-17T11:11:52.343Z,20.24
2023-06-17T11:12:52.612Z,20.14
2023-06-17T11:13:52.878Z,20.10
2023-06-17T11:14:53.097Z,20.03
2023-06-17T11:15:53.467Z,20.02
2023-06-17T11:16:53.734Z,19.92
2023-06-17T11:17:54.072Z,19.84
2023-06-17T11:18:54.247Z,19.80
2023-06-17T11:19:54.519Z,19.77
2023-06-17T11:20:54.747Z,19.74
2023-06-17T11:21:54.965Z,19.71
2023-06-17T11:22:55.332Z,19.69
2023-06-17T11:23:55.672Z,19.65
2023-06-17T11:24:55.786Z,19.63
2023-06-17T11:25:56.082Z,19.63
2023-06-17T11:26:56.373Z,19.63
2023-06-17T11:27:56.597Z,19.59
2023-06-17T11:28:57.132Z,19.58
2023-06-17T11:29:57.270Z,19.54
2023-06-17T11:30:57.536Z,19.50
2023-06-17T11:31:57.765Z,19.47
2023-06-17T11:32:58.167Z,19.46
2023-06-17T11:33:58.269Z,19.43
2023-06-17T11:34:58.516Z,19.40
2023-06-17T11:35:58.831Z,19.39
2023-06-17T11:36:59.100Z,19.39
2023-06-17T11:37:59.404Z,19.40
2023-06-17T11:38:59.720Z,19.39
2023-06-17T11:39:59.960Z,19.40
2023-06-17T11:41:00.217Z,19.41
2023-06-17T11:42:00.520Z,19.43
2023-06-17T11:43:00.767Z,19.43
2023-06-17T11:44:01.068Z,19.43
2023-06-17T11:45:01.327Z,19.43
2023-06-17T11:46:01.563Z,19.44
2023-06-17T11:47:01.819Z,19.46
2023-06-17T11:48:02.196Z,19.47
2023-06-17T11:49:02.676Z,19.47
2023-06-17T11:50:02.706Z,19.47
2023-06-17T11:51:03.000Z,19.46
2023-06-17T11:52:03.770Z,19.46
2023-06-17T11:53:03.616Z,19.46
2023-06-17T11:54:04.392Z,19.47
2023-06-17T11:55:04.459Z,19.50
2023-06-17T11:56:04.465Z,19.54
2023-06-17T11:57:04.681Z,19.58
2023-06-17T11:58:04.931Z,19.59
2023-06-17T11:59:05.759Z,19.65
2023-06-17T12:00:06.007Z,19.66
2023-06-17T12:01:05.706Z,19.69
2023-06-17T12:02:06.011Z,19.71
2023-06-17T12:03:06.356Z,19.73
2023-06-17T12:04:06.495Z,19.73
2023-06-17T12:05:06.881Z,19.73
2023-06-17T12:06:06.971Z,19.74
2023-06-17T12:07:07.241Z,19.74
2023-06-17T12:08:07.530Z,19.73
2023-06-17T12:09:07.785Z,19.74
2023-06-17T12:10:08.105Z,19.76
2023-06-17T12:11:08.356Z,19.77
2023-06-17T12:12:08.605Z,19.78
2023-06-17T12:13:08.858Z,19.80
2023-06-17T12:14:09.098Z,19.84
2023-06-17T12:15:16.312Z,19.84
2023-06-17T12:16:10.672Z,19.87
2023-06-17T12:17:09.984Z,19.95
2023-06-17T12:18:10.252Z,20.01
2023-06-17T12:19:10.539Z,20.06
2023-06-17T12:20:10.799Z,20.13
2023-06-17T12:21:11.068Z,20.17
2023-06-17T12:22:11.528Z,20.21
2023-06-17T12:23:11.956Z,20.28
2023-06-17T12:24:11.974Z,20.33
2023-06-17T12:25:12.299Z,20.38
2023-06-17T12:26:12.550Z,20.42
2023-06-17T12:27:12.971Z,20.50
2023-06-17T12:28:13.039Z,20.55
2023-06-17T12:29:24.112Z,20.58
2023-06-17T12:30:14.598Z,20.61
2023-06-17T12:31:13.958Z,20.64
2023-06-17T12:32:14.201Z,20.66
2023-06-17T12:33:14.489Z,20.67
2023-06-17T12:34:14.759Z,20.69
2023-06-17T12:35:15.024Z,20.69
2023-06-17T12:36:15.276Z,20.72
2023-06-17T12:37:15.556Z,20.74
2023-06-17T12:38:15.827Z,20.76
2023-06-17T12:39:16.176Z,20.79
2023-06-17T12:40:16.342Z,20.79
2023-06-17T12:41:16.588Z,20.79
2023-06-17T12:42:16.867Z,20.79
2023-06-17T12:43:17.122Z,20.77
2023-06-17T12:44:17.461Z,20.77
2023-06-17T12:45:17.742Z,20.74
2023-06-17T12:46:18.116Z,20.74
2023-06-17T12:47:18.291Z,20.76
2023-06-17T12:48:18.581Z,20.74
2023-06-17T12:49:18.912Z,20.74
2023-06-17T12:50:19.243Z,20.70
2023-06-17T12:51:19.573Z,20.72
2023-06-17T12:52:19.825Z,20.72
2023-06-17T12:53:20.071Z,20.70
2023-06-17T12:54:20.325Z,20.73
2023-06-17T12:55:20.969Z,20.77
2023-06-17T12:56:20.911Z,20.79
2023-06-17T12:57:21.176Z,20.84
2023-06-17T12:58:21.434Z,20.85